createdAt,value
2019-04-11T00:02:22.687Z,98915.76
2019-04-11T00:04:55.014Z,98912.47
2019-04-11T00:07:27.934Z,98916.77
2019-04-11T00:09:59.466Z,98921.10
2019-04-11T00:12:32.658Z,98920.55
2019-04-11T00:15:04.373Z,98918.30
2019-04-11T00:17:36.293Z,98918.94
2019-04-11T00:20:07.974Z,98920.09
2019-04-11T00:22:41.515Z,98922.41
2019-04-11T00:25:13.584Z,98927.45
2019-04-11T00:27:46.787Z,98943.72
2019-04-11T00:30:19.833Z,98943.72
2019-04-11T00:32:51.864Z,98940.30
2019-04-11T00:35:23.987Z,98943.38
2019-04-11T00:37:55.840Z,98942.68
2019-04-11T00:40:27.475Z,98942.68
2019-04-11T00:42:59.100Z,98940.98
2019-04-11T00:45:31.802Z,98934.02
2019-04-11T00:48:03.842Z,98950.60
2019-04-11T00:50:35.749Z,98950.60
2019-04-11T00:53:07.310Z,98953.07
2019-04-11T00:55:39.846Z,98946.42
2019-04-11T00:58:11.689Z,98949.30
2019-04-11T01:00:44.735Z,98955.30
2019-04-11T01:03:17.991Z,98951.21
2019-04-11T01:05:49.972Z,98964.83
2019-04-11T01:08:21.862Z,98964.83
2019-04-11T01:10:53.344Z,98967.68
2019-04-11T01:13:25.917Z,98972.37
2019-04-11T01:16:03.146Z,98971.05
2019-04-11T01:18:34.801Z,98976.05
2019-04-11T01:21:06.709Z,98977.47
2019-04-11T01:23:39.410Z,98986.78
2019-04-11T01:26:10.967Z,98986.78
2019-04-11T01:28:42.940Z,98979.91
2019-04-11T01:31:15.636Z,98979.91
2019-04-11T01:33:48.303Z,98988.03
2019-04-11T01:36:20.598Z,98985.96
2019-04-11T01:38:55.342Z,98984.47
2019-04-11T01:41:26.719Z,98990.28
2019-04-11T01:44:02.149Z,98995.13
2019-04-11T01:46:31.941Z,98995.13
2019-04-11T01:49:17.638Z,98999.11
2019-04-11T01:51:49.778Z,98999.11
2019-04-11T01:54:21.832Z,99007.63
2019-04-11T01:56:53.780Z,99017.30
2019-04-11T01:59:25.645Z,99010.27
2019-04-11T02:02:13.943Z,99014.77
2019-04-11T02:05:05.324Z,99014.77
2019-04-11T02:07:37.045Z,99014.48
2019-04-11T02:10:09.144Z,99010.13
2019-04-11T02:12:41.572Z,99018.95
2019-04-11T02:15:14.305Z,99021.78
2019-04-11T02:17:46.735Z,99021.61
2019-04-11T02:20:18.769Z,99027.25
2019-04-11T02:23:07.367Z,99025.73
2019-04-11T02:25:58.055Z,99029.05
2019-04-11T02:28:30.912Z,99026.63
2019-04-11T02:31:04.604Z,99030.91
2019-04-11T02:33:37.118Z,99020.14
2019-04-11T02:36:11.728Z,99020.14
2019-04-11T02:38:44.054Z,99021.67
2019-04-11T02:41:17.091Z,99020.60
2019-04-11T02:43:49.478Z,99022.23
2019-04-11T02:46:34.722Z,99023.56
2019-04-11T02:48:56.792Z,99028.58
2019-04-11T02:51:31.138Z,99031.68
2019-04-11T02:54:04.557Z,99031.68
2019-04-11T02:56:36.525Z,99027.83
2019-04-11T02:59:08.995Z,99027.83
2019-04-11T03:01:42.024Z,99035.06
2019-04-11T03:04:14.843Z,99036.92
2019-04-11T03:06:47.910Z,99043.17
2019-04-11T03:09:21.874Z,99048.84
2019-04-11T03:11:54.709Z,99045.51
2019-04-11T03:14:32.751Z,99046.11
2019-04-11T03:17:11.907Z,99045.38
2019-04-11T03:19:47.717Z,99043.98
2019-04-11T03:22:09.837Z,99046.91
2019-04-11T03:24:42.945Z,99046.81
2019-04-11T03:27:15.456Z,99047.87
2019-04-11T03:29:49.350Z,99041.75
2019-04-11T03:33:27.718Z,99039.14
2019-04-11T03:35:51.699Z,99037.20
2019-04-11T03:37:56.633Z,99030.91
2019-04-11T03:40:22.451Z,99036.13
2019-04-11T03:42:57.071Z,99039.62
2019-04-11T03:45:33.108Z,99039.62
2019-04-11T03:48:02.400Z,99033.50
2019-04-11T03:50:26.110Z,99042.84
2019-04-11T03:52:59.492Z,99042.48
2019-04-11T03:55:32.274Z,99045.95
2019-04-11T03:58:05.962Z,99045.81
2019-04-11T04:00:42.587Z,99045.81
2019-04-11T04:03:14.159Z,99050.63
2019-04-11T04:05:46.080Z,99053.39
2019-04-11T04:08:18.276Z,99066.92
2019-04-11T04:11:14.883Z,99066.92
2019-04-11T04:14:05.765Z,99059.75
2019-04-11T04:17:04.251Z,99051.50
2019-04-11T04:19:45.571Z,99062.55
2019-04-11T04:22:32.198Z,99054.63
2019-04-11T04:25:04.477Z,99053.86
2019-04-11T04:27:36.365Z,99042.30
2019-04-11T04:30:08.771Z,99042.30
2019-04-11T04:32:42.853Z,99050.41
2019-04-11T04:35:19.020Z,99045.08
2019-04-11T04:37:49.751Z,99041.61
2019-04-11T04:40:35.542Z,99041.61
2019-04-11T04:42:58.371Z,99046.54
2019-04-11T04:45:36.157Z,99046.54
2019-04-11T04:48:08.456Z,99037.72
2019-04-11T04:50:38.751Z,99036.45
2019-04-11T04:53:10.123Z,99034.25
2019-04-11T04:55:43.428Z,99034.28
2019-04-11T04:58:15.922Z,99027.80
2019-04-11T05:00:51.120Z,99028.30
2019-04-11T05:03:24.400Z,99020.18
2019-04-11T05:05:55.813Z,99013.91
2019-04-11T05:08:27.428Z,99024.22
2019-04-11T05:10:59.137Z,99010.09
2019-04-11T05:13:32.339Z,99007.72
2019-04-11T05:16:15.150Z,99008.48
2019-04-11T05:18:38.122Z,99004.42
2019-04-11T05:21:10.698Z,99001.81
2019-04-11T05:23:42.693Z,98997.70
2019-04-11T05:26:15.207Z,98997.70
2019-04-11T05:28:46.864Z,99004.17
2019-04-11T05:31:20.535Z,98998.09
2019-04-11T05:33:52.386Z,98998.09
2019-04-11T05:36:24.725Z,98999.39
2019-04-11T05:38:56.703Z,98999.40
2019-04-11T05:41:29.302Z,98991.95
2019-04-11T05:44:03.468Z,98985.29
2019-04-11T05:46:47.238Z,98986.48
2019-04-11T05:49:35.137Z,98977.50
2019-04-11T05:52:10.262Z,98982.36
2019-04-11T05:54:48.010Z,98976.98
2019-04-11T05:57:22.648Z,98972.78
2019-04-11T05:59:54.337Z,98972.78
2019-04-11T06:02:45.663Z,98970.59
2019-04-11T06:05:32.513Z,98970.42
2019-04-11T06:08:05.466Z,98950.09
2019-04-11T06:11:04.332Z,98950.09
2019-04-11T06:13:47.351Z,98954.83
2019-04-11T06:16:19.425Z,98941.91
2019-04-11T06:19:22.877Z,98941.91
2019-04-11T06:22:09.202Z,98935.18
2019-04-11T06:25:11.246Z,98927.72
2019-04-11T06:27:55.793Z,98921.28
2019-04-11T06:30:40.314Z,98923.48
2019-04-11T06:33:29.436Z,98919.03
2019-04-11T06:36:26.700Z,98912.74
2019-04-11T06:39:24.071Z,98917.89
2019-04-11T06:42:15.052Z,98913.05
2019-04-11T06:45:04.644Z,98901.66
2019-04-11T06:48:05.851Z,98898.37
2019-04-11T06:50:55.865Z,98894.44
2019-04-11T06:53:34.409Z,98890.06
2019-04-11T06:56:33.486Z,98881.47
2019-04-11T06:59:22.416Z,98881.47
2019-04-11T07:01:55.052Z,98875.86
2019-04-11T07:04:31.493Z,98871.94
2019-04-11T07:07:28.793Z,98869.73
2019-04-11T07:10:20.226Z,98865.98
2019-04-11T07:13:05.515Z,98865.98
2019-04-11T07:15:56.823Z,98861.66
2019-04-11T07:18:56.946Z,98852.68
2019-04-11T07:21:35.411Z,98843.77
2019-04-11T07:24:24.795Z,98842.52
2019-04-11T07:27:05.176Z,98831.16
2019-04-11T07:29:58.455Z,98825.33
2019-04-11T07:32:30.334Z,98824.95
2019-04-11T07:35:19.307Z,98813.70
2019-04-11T07:37:55.885Z,98813.70
2019-04-11T07:40:44.397Z,98814.77
2019-04-11T07:43:43.733Z,98812.19
2019-04-11T07:46:25.042Z,98799.56
2019-04-11T07:49:03.612Z,98791.05
2019-04-11T07:51:43.079Z,98789.20
2019-04-11T07:54:20.270Z,98786.73
2019-04-11T07:57:03.866Z,98781.78
2019-04-11T08:00:08.044Z,98778.30
2019-04-11T08:03:15.727Z,98772.48
2019-04-11T08:06:05.542Z,98772.48
2019-04-11T08:09:02.734Z,98764.91
2019-04-11T08:11:52.608Z,98769.38
2019-04-11T08:14:46.414Z,98759.55
2019-04-11T08:17:33.311Z,98753.97
2019-04-11T08:20:25.775Z,98737.98
2019-04-11T08:23:01.406Z,98737.98
2019-04-11T08:25:50.786Z,98735.66
2019-04-11T08:28:22.975Z,98735.66
2019-04-11T08:31:19.582Z,98727.69
2019-04-11T08:33:55.131Z,98725.61
2019-04-11T08:36:44.603Z,98726.64
2019-04-11T08:39:22.848Z,98717.19
2019-04-11T08:42:13.532Z,98717.19
2019-04-11T08:44:48.000Z,98711.52
2019-04-11T08:47:22.417Z,98702.25
2019-04-11T08:49:57.000Z,98702.25
2019-04-11T08:52:44.422Z,98696.89
2019-04-11T08:55:21.090Z,98701.38
2019-04-11T08:57:58.306Z,98687.89
2019-04-11T09:00:46.329Z,98680.26
2019-04-11T09:03:36.276Z,98674.26
2019-04-11T09:06:12.407Z,98670.53
2019-04-11T09:09:02.793Z,98671.72
2019-04-11T09:11:41.137Z,98671.72
2019-04-11T09:14:35.886Z,98669.14
2019-04-11T09:17:16.705Z,98669.14
2019-04-11T09:20:07.552Z,98653.16
2019-04-11T09:23:01.626Z,98653.16
2019-04-11T09:25:53.017Z,98646.70
2019-04-11T09:28:44.435Z,98643.45
2019-04-11T09:31:42.551Z,98641.29
2019-04-11T09:34:46.436Z,98630.33
2019-04-11T09:37:25.449Z,98628.02
2019-04-11T09:40:12.115Z,98626.24
2019-04-11T09:43:09.345Z,98626.24
2019-04-11T09:46:01.812Z,98624.72
2019-04-11T09:49:02.425Z,98614.41
2019-04-11T09:51:44.278Z,98617.72
2019-04-11T09:54:35.045Z,98611.94
2019-04-11T09:57:20.576Z,98607.80
2019-04-11T10:00:16.443Z,98603.84
2019-04-11T10:03:10.818Z,98598.49
2019-04-11T10:06:19.717Z,98595.62
2019-04-11T10:08:55.479Z,98593.36
2019-04-11T10:11:44.327Z,98589.83
2019-04-11T10:14:21.731Z,98589.83
2019-04-11T10:17:16.854Z,98583.64
2019-04-11T10:20:08.682Z,98584.85
2019-04-11T10:23:01.414Z,98578.38
2019-04-11T10:25:37.080Z,98573.72
2019-04-11T10:28:31.316Z,98575.20
2019-04-11T10:31:14.795Z,98571.59
2019-04-11T10:34:04.656Z,98562.27
2019-04-11T10:36:51.502Z,98569.71
2019-04-11T10:39:59.819Z,98569.71
2019-04-11T10:42:32.846Z,98565.68
2019-04-11T10:45:24.858Z,98560.10
2019-04-11T10:48:03.312Z,98560.10
2019-04-11T10:50:54.121Z,98559.98
2019-04-11T10:53:27.088Z,98558.32
2019-04-11T10:56:16.264Z,98555.31
2019-04-11T10:58:55.282Z,98557.92
2019-04-11T11:01:44.697Z,98557.92
2019-04-11T11:04:23.439Z,98544.89
2019-04-11T11:07:02.346Z,98544.89
2019-04-11T11:09:52.362Z,98544.43
2019-04-11T11:12:47.561Z,98540.08
2019-04-11T11:15:27.496Z,98545.05
2019-04-11T11:21:01.782Z,98534.90
2019-04-11T11:23:49.342Z,98541.17
2019-04-11T11:26:25.683Z,98531.97
2019-04-11T11:29:15.803Z,98539.81
2019-04-11T11:31:56.914Z,98535.99
2019-04-11T11:34:34.952Z,98538.72
2019-04-11T11:37:31.499Z,98537.21
2019-04-11T11:40:41.661Z,98538.15
2019-04-11T11:43:32.955Z,98535.14
2019-04-11T11:46:29.734Z,98541.47
2019-04-11T11:49:07.911Z,98539.05
2019-04-11T11:52:11.260Z,98539.05
2019-04-11T11:54:50.214Z,98544.45
2019-04-11T11:57:27.198Z,98539.20
2019-04-11T12:00:12.702Z,98544.83
2019-04-11T12:02:59.467Z,98536.06
2019-04-11T12:05:34.883Z,98539.66
2019-04-11T12:08:24.630Z,98539.66
2019-04-11T12:11:06.043Z,98535.70
2019-04-11T12:14:05.111Z,98533.97
2019-04-11T12:17:01.918Z,98534.10
2019-04-11T12:19:49.298Z,98537.80
2019-04-11T12:22:16.010Z,98535.36
2019-04-11T12:25:16.585Z,98535.36
2019-04-11T12:28:13.709Z,98537.80
2019-04-11T12:30:48.162Z,98537.80
2019-04-11T12:33:29.716Z,98546.05
2019-04-11T12:36:26.457Z,98546.78
2019-04-11T12:39:28.785Z,98546.78
2019-04-11T12:42:21.350Z,98547.91
2019-04-11T12:45:10.581Z,98545.70
2019-04-11T12:47:49.514Z,98546.76
2019-04-11T12:50:40.064Z,98546.37
2019-04-11T12:53:13.985Z,98542.33
2019-04-11T12:56:03.001Z,98547.31
2019-04-11T12:58:46.882Z,98550.19
2019-04-11T13:01:49.791Z,98543.45
2019-04-11T13:04:31.974Z,98542.33
2019-04-11T13:07:34.306Z,98543.82
2019-04-11T13:10:24.078Z,98543.82
2019-04-11T13:13:21.012Z,98549.78
2019-04-11T13:15:59.157Z,98549.78
2019-04-11T13:19:02.071Z,98559.16
2019-04-11T13:21:40.521Z,98557.79
2019-04-11T13:24:29.652Z,98572.32
2019-04-11T13:27:25.977Z,98572.32
2019-04-11T13:30:17.901Z,98577.48
2019-04-11T13:32:57.949Z,98589.27
2019-04-11T13:36:02.226Z,98595.99
2019-04-11T13:38:41.881Z,98597.48
2019-04-11T13:41:30.995Z,98597.48
2019-04-11T13:44:12.223Z,98597.27
2019-04-11T13:47:02.735Z,98601.73
2019-04-11T13:49:45.045Z,98596.69
2019-04-11T13:52:35.959Z,98596.69
2019-04-11T13:55:23.140Z,98604.21
2019-04-11T13:58:14.271Z,98611.36
2019-04-11T14:00:53.735Z,98615.47
2019-04-11T14:03:44.453Z,98615.47
2019-04-11T14:06:31.990Z,98621.44
2019-04-11T14:09:26.035Z,98631.55
2019-04-11T14:11:59.622Z,98638.69
2019-04-11T14:14:53.477Z,98638.69
2019-04-11T14:17:51.206Z,98651.17
2019-04-11T14:20:51.516Z,98654.16
2019-04-11T14:23:42.734Z,98651.16
2019-04-11T14:26:34.249Z,98651.16
2019-04-11T14:29:40.819Z,98653.84
2019-04-11T14:32:38.823Z,98655.05
2019-04-11T14:35:40.658Z,98659.02
2019-04-11T14:38:14.258Z,98663.23
2019-04-11T14:41:01.631Z,98668.39
2019-04-11T14:43:37.490Z,98672.40
2019-04-11T14:46:22.342Z,98677.42
2019-04-11T14:49:15.042Z,98677.42
2019-04-11T14:52:04.011Z,98684.32
2019-04-11T14:54:39.706Z,98679.34
2019-04-11T14:57:35.529Z,98687.17
2019-04-11T15:00:28.144Z,98687.17
2019-04-11T15:03:25.016Z,98698.13
2019-04-11T15:06:01.901Z,98698.13
2019-04-11T15:08:50.511Z,98698.31
2019-04-11T15:11:42.141Z,98698.31
2019-04-11T15:14:28.618Z,98706.33
2019-04-11T15:17:21.537Z,98706.33
2019-04-11T15:20:09.186Z,98707.66
2019-04-11T15:22:44.909Z,98707.98
2019-04-11T15:25:37.922Z,98705.77
2019-04-11T15:28:36.207Z,98708.45
2019-04-11T15:31:26.214Z,98712.87
2019-04-11T15:34:26.401Z,98714.22
2019-04-11T15:37:19.307Z,98714.22
2019-04-11T15:40:09.809Z,98718.80
2019-04-11T15:43:03.419Z,98724.67
2019-04-11T15:46:01.394Z,98724.67
2019-04-11T15:49:01.230Z,98719.41
2019-04-11T15:51:36.370Z,98723.93
2019-04-11T15:54:27.376Z,98721.69
2019-04-11T15:57:05.631Z,98707.92
2019-04-11T15:59:56.226Z,98712.03
2019-04-11T16:02:59.474Z,98709.96
2019-04-11T16:05:50.057Z,98713.05
2019-04-11T16:08:30.900Z,98715.41
2019-04-11T16:11:39.851Z,98713.90
2019-04-11T16:14:19.588Z,98716.43
2019-04-11T16:17:25.596Z,98715.77
2019-04-11T16:20:00.939Z,98723.02
2019-04-11T16:23:11.383Z,98725.42
2019-04-11T16:25:55.968Z,98725.42
2019-04-11T16:28:56.171Z,98730.19
2019-04-11T16:31:34.720Z,98725.80
2019-04-11T16:34:24.701Z,98719.17
2019-04-11T16:37:00.043Z,98723.47
2019-04-11T16:39:53.500Z,98721.50
2019-04-11T16:42:45.049Z,98718.17
2019-04-11T16:45:33.632Z,98714.78
2019-04-11T16:48:05.005Z,98711.37
2019-04-11T16:50:36.907Z,98707.59
2019-04-11T16:53:11.524Z,98707.59
2019-04-11T16:55:43.607Z,98715.81
2019-04-11T16:58:19.651Z,98721.88
2019-04-11T17:00:52.637Z,98718.55
2019-04-11T17:03:25.153Z,98726.10
2019-04-11T17:06:10.308Z,98725.78
2019-04-11T17:08:51.632Z,98725.31
2019-04-11T17:11:26.675Z,98727.81
2019-04-11T17:13:57.881Z,98721.00
2019-04-11T17:16:30.724Z,98720.85
2019-04-11T17:19:05.529Z,98721.17
2019-04-11T17:21:43.200Z,98716.78
2019-04-11T17:24:09.789Z,98713.60
2019-04-11T17:26:41.683Z,98711.86
2019-04-11T17:29:14.606Z,98710.00
2019-04-11T17:31:46.562Z,98719.33
2019-04-11T17:34:18.148Z,98719.87
2019-04-11T17:36:49.751Z,98721.13
2019-04-11T17:39:22.309Z,98717.67
2019-04-11T17:41:53.866Z,98712.73
2019-04-11T17:44:27.882Z,98713.84
2019-04-11T17:46:59.496Z,98713.84
2019-04-11T17:49:31.089Z,98713.96
2019-04-11T17:52:04.878Z,98708.39
2019-04-11T17:54:36.010Z,98708.39
2019-04-11T17:57:07.812Z,98708.61
2019-04-11T17:59:39.299Z,98708.98
2019-04-11T18:02:11.183Z,98709.62
2019-04-11T18:04:45.747Z,98706.35
2019-04-11T18:07:17.619Z,98709.54
2019-04-11T18:09:49.600Z,98709.54
2019-04-11T18:12:21.101Z,98706.89
2019-04-11T18:14:53.892Z,98703.25
2019-04-11T18:17:25.573Z,98701.78
2019-04-11T18:19:57.414Z,98701.78
2019-04-11T18:22:28.964Z,98699.50
2019-04-11T18:25:00.503Z,98701.22
2019-04-11T18:27:33.170Z,98701.22
2019-04-11T18:30:07.088Z,98703.81
2019-04-11T18:32:38.895Z,98692.81
2019-04-11T18:35:12.806Z,98701.27
2019-04-11T18:37:44.380Z,98694.94
2019-04-11T18:40:18.140Z,98694.94
2019-04-11T18:42:51.894Z,98698.58
2019-04-11T18:45:24.018Z,98698.58
2019-04-11T18:47:55.501Z,98695.71
2019-04-11T18:50:28.821Z,98690.03
2019-04-11T18:53:00.544Z,98690.03
2019-04-11T18:55:32.147Z,98695.27
2019-04-11T18:58:04.861Z,98695.27
2019-04-11T19:00:38.325Z,98697.06
2019-04-11T19:03:14.320Z,98693.43
2019-04-11T19:05:45.104Z,98693.43
2019-04-11T19:08:16.820Z,98691.88
2019-04-11T19:10:48.745Z,98693.72
2019-04-11T19:13:20.963Z,98693.72
2019-04-11T19:15:55.231Z,98689.87
2019-04-11T19:18:27.150Z,98689.29
2019-04-11T19:20:59.038Z,98685.02
2019-04-11T19:23:30.783Z,98678.84
2019-04-11T19:26:02.398Z,98678.84
2019-04-11T19:28:34.066Z,98678.16
2019-04-11T19:31:06.092Z,98684.84
2019-04-11T19:33:39.858Z,98682.24
2019-04-11T19:36:12.264Z,98682.24
2019-04-11T19:38:44.552Z,98680.26
2019-04-11T19:41:17.999Z,98685.64
2019-04-11T19:43:51.303Z,98688.06
2019-04-11T19:46:23.028Z,98689.66
2019-04-11T19:48:59.062Z,98688.13
2019-04-11T19:51:29.540Z,98687.23
2019-04-11T19:54:03.350Z,98692.86
2019-04-11T19:56:48.462Z,98687.59
2019-04-11T19:59:20.101Z,98689.17
2019-04-11T20:01:53.212Z,98693.37
2019-04-11T20:04:25.910Z,98695.68
2019-04-11T20:06:57.814Z,98690.27
2019-04-11T20:09:29.418Z,98690.27
2019-04-11T20:12:01.206Z,98694.54
2019-04-11T20:14:34.801Z,98699.30
2019-04-11T20:17:09.067Z,98699.30
2019-04-11T20:19:39.847Z,98700.63
2019-04-11T20:22:11.508Z,98700.63
2019-04-11T20:24:46.758Z,98706.77
2019-04-11T20:27:20.088Z,98706.77
2019-04-11T20:29:53.124Z,98710.28
2019-04-11T20:32:24.130Z,98710.28
2019-04-11T20:34:58.905Z,98715.36
2019-04-11T20:37:39.130Z,98715.36
2019-04-11T20:40:04.383Z,98721.85
2019-04-11T20:42:36.190Z,98721.65
2019-04-11T20:45:08.093Z,98721.65
2019-04-11T20:47:39.926Z,98726.81
2019-04-11T20:50:12.118Z,98723.17
2019-04-11T20:52:44.093Z,98723.19
2019-04-11T20:55:16.022Z,98723.19
2019-04-11T20:57:48.220Z,98729.64
2019-04-11T21:00:27.456Z,98731.38
2019-04-11T21:03:00.422Z,98733.14
2019-04-11T21:05:33.268Z,98732.58
2019-04-11T21:08:05.092Z,98736.72
2019-04-11T21:10:36.607Z,98735.16
2019-04-11T21:13:08.407Z,98735.81
2019-04-11T21:15:40.202Z,98735.81
2019-04-11T21:18:12.153Z,98735.24
2019-04-11T21:20:43.916Z,98732.31
2019-04-11T21:23:24.491Z,98732.31
2019-04-11T21:25:49.482Z,98735.87
2019-04-11T21:28:21.259Z,98741.98
2019-04-11T21:30:53.123Z,98742.11
2019-04-11T21:33:24.978Z,98742.11
2019-04-11T21:35:56.836Z,98737.45
2019-04-11T21:38:31.647Z,98737.45
2019-04-11T21:41:05.905Z,98745.20
2019-04-11T21:43:37.543Z,98745.72
2019-04-11T21:46:09.175Z,98745.72
2019-04-11T21:48:40.858Z,98750.06
2019-04-11T21:51:12.929Z,98743.49
2019-04-11T21:53:45.343Z,98744.06
2019-04-11T21:56:19.325Z,98742.39
2019-04-11T21:58:51.074Z,98742.39
2019-04-11T22:01:24.985Z,98748.39
2019-04-11T22:03:58.477Z,98740.84
2019-04-11T22:06:31.126Z,98745.80
2019-04-11T22:09:05.072Z,98745.80
2019-04-11T22:11:38.359Z,98744.63
2019-04-11T22:14:11.300Z,98744.63
2019-04-11T22:16:45.170Z,98746.62
2019-04-11T22:19:16.977Z,98754.94
2019-04-11T22:21:50.620Z,98757.80
2019-04-11T22:24:22.232Z,98759.22
2019-04-11T22:26:54.245Z,98759.22
2019-04-11T22:29:25.904Z,98759.73
2019-04-11T22:31:58.561Z,98762.39
2019-04-11T22:34:42.822Z,98767.43
2019-04-11T22:37:14.567Z,98769.22
2019-04-11T22:39:46.582Z,98770.68
2019-04-11T22:42:18.199Z,98774.09
2019-04-11T22:44:49.932Z,98786.87
2019-04-11T22:47:22.046Z,98786.87
2019-04-11T22:49:54.147Z,98788.20
2019-04-11T22:52:26.014Z,98789.53
2019-04-11T22:54:57.445Z,98785.70
2019-04-11T22:57:29.344Z,98788.06
2019-04-11T23:00:01.093Z,98798.20
2019-04-11T23:02:47.436Z,98798.17
2019-04-11T23:05:20.068Z,98798.17
2019-04-11T23:07:51.926Z,98813.50
2019-04-11T23:10:24.470Z,98812.19
2019-04-11T23:12:56.354Z,98812.22
2019-04-11T23:15:28.035Z,98821.05
2019-04-11T23:17:59.607Z,98821.05
2019-04-11T23:20:31.556Z,98817.02
2019-04-11T23:23:03.747Z,98819.86
2019-04-11T23:25:36.602Z,98822.36
2019-04-11T23:28:08.408Z,98820.80
2019-04-11T23:30:40.151Z,98830.13
2019-04-11T23:33:15.527Z,98830.69
2019-04-11T23:35:48.873Z,98822.05
2019-04-11T23:38:23.579Z,98822.05
2019-04-11T23:40:54.408Z,98825.88
2019-04-11T23:43:26.123Z,98831.91
2019-04-11T23:45:57.948Z,98842.84
2019-04-11T23:48:29.733Z,98835.13
2019-04-11T23:51:01.597Z,98836.20
2019-04-11T23:53:35.311Z,98831.93
2019-04-11T23:56:07.053Z,98831.93
2019-04-11T23:58:39.064Z,98844.19
